Time;durP1;ratioP1;P1;durP2;ratioP2;P2;SDS_P1;SDS_P2;PMS_P1;PMS_P2;Temp;Humidity;BMP_temperature;BMP_pressure;BME280_temperature;BME280_humidity;BME280_pressure;Samples;Min_cycle;Max_cycle;Signal;HPM_P1;HPM_P2
2021/09/12 00:01:09;;;;;;;1.40;1.30;;;;;13.80;100878.00;;;;4835284;29;20466;-76
2021/09/12 00:03:38;;;;;;;200.15;123.60;;;;;13.90;100877.00;;;;4836234;29;20145;-76
2021/09/12 00:06:07;;;;;;;11.52;7.93;;;;;14.10;100895.00;;;;4835728;29;20068;-77
2021/09/12 00:08:36;;;;;;;4.53;1.23;;;;;14.00;100908.00;;;;4835561;29;20141;-76
2021/09/12 00:11:06;;;;;;;5.20;1.17;;;;;14.00;100882.00;;;;4835603;29;20068;-75
2021/09/12 00:13:35;;;;;;;3.00;2.85;;;;;13.70;100905.00;;;;4835528;29;20060;-75
2021/09/12 00:16:04;;;;;;;1.38;1.02;;;;;13.50;100901.00;;;;4835216;29;20050;-77
2021/09/12 00:18:33;;;;;;;1.52;0.55;;;;;13.50;100883.00;;;;4835547;29;20057;-75
2021/09/12 00:21:02;;;;;;;0.00;0.00;;;;;13.30;100891.00;;;;4835602;29;20054;-75
2021/09/12 00:23:31;;;;;;;369.52;190.93;;;;;13.10;100876.00;;;;4835384;29;20068;-76
2021/09/12 00:26:00;;;;;;;0.10;0.10;;;;;13.00;100871.00;;;;4835783;29;20050;-76
2021/09/12 00:28:29;;;;;;;1.08;1.08;;;;;12.80;100892.00;;;;4836325;29;20514;-75
2021/09/12 00:30:58;;;;;;;3.85;3.65;;;;;12.70;100898.00;;;;4835648;29;20050;-75
2021/09/12 00:33:31;;;;;;;2.17;2.08;;;;;12.60;100893.00;;;;4835666;29;20426;-76
2021/09/12 00:36:00;;;;;;;0.45;0.45;;;;;12.60;100889.00;;;;4835854;29;20081;-75
2021/09/12 00:38:28;;;;;;;0.73;0.73;;;;;12.50;100889.00;;;;4835537;29;20080;-76
2021/09/12 00:40:59;;;;;;;0.10;0.10;;;;;12.40;100862.00;;;;4834677;29;20142;-75
2021/09/12 00:43:28;;;;;;;0.88;0.70;;;;;12.40;100862.00;;;;4835996;29;20050;-75
2021/09/12 00:45:58;;;;;;;0.00;0.00;;;;;12.30;100874.00;;;;4835231;29;20058;-76
2021/09/12 00:48:27;;;;;;;0.00;0.00;;;;;12.30;100888.00;;;;4835589;29;20064;-75
2021/09/12 00:50:56;;;;;;;12.93;8.23;;;;;12.30;100887.00;;;;4835605;29;20082;-75
2021/09/12 00:53:26;;;;;;;1.20;1.17;;;;;12.30;100885.00;;;;4834176;29;20510;-76
2021/09/12 00:56:00;;;;;;;0.10;0.10;;;;;12.50;100887.00;;;;4835116;29;20434;-76
2021/09/12 00:58:30;;;;;;;1.83;1.73;;;;;12.30;100899.00;;;;4833465;29;20060;-76
2021/09/12 01:00:59;;;;;;;4.95;2.13;;;;;12.20;100879.00;;;;4833856;29;20616;-76
2021/09/12 01:03:28;;;;;;;0.82;0.82;;;;;12.20;100903.00;;;;4835912;29;20064;-77
2021/09/12 01:05:57;;;;;;;0.35;0.30;;;;;12.10;100889.00;;;;4837244;29;20062;-76
2021/09/12 01:08:26;;;;;;;126.53;60.30;;;;;12.10;100898.00;;;;4838471;29;20054;-77
2021/09/12 01:10:55;;;;;;;175.80;156.82;;;;;12.10;100895.00;;;;4837643;29;20046;-75
2021/09/12 01:13:24;;;;;;;64.57;58.60;;;;;12.00;100903.00;;;;4838362;29;20058;-77
2021/09/12 01:15:53;;;;;;;234.18;212.48;;;;;12.00;100868.00;;;;4838307;29;20054;-77
2021/09/12 01:18:22;;;;;;;1525.68;764.80;;;;;11.90;100867.00;;;;4836942;29;20830;-78
2021/09/12 01:20:51;;;;;;;1.70;1.65;;;;;11.90;100908.00;;;;4836671;29;20054;-77
2021/09/12 01:23:19;;;;;;;0.75;0.47;;;;;11.90;100908.00;;;;4837333;29;20054;-78
2021/09/12 01:25:56;;;;;;;742.13;218.00;;;;;11.90;100903.00;;;;4836876;29;20054;-76
2021/09/12 01:28:25;;;;;;;12.88;12.05;;;;;11.90;100903.00;;;;4836306;29;20054;-79
2021/09/12 01:30:54;;;;;;;2.47;2.28;;;;;11.80;100898.00;;;;4834815;29;20060;-77
2021/09/12 01:33:23;;;;;;;1.73;1.63;;;;;11.80;100898.00;;;;4836325;29;20093;-77
2021/09/12 01:35:52;;;;;;;2.08;1.80;;;;;11.80;100887.00;;;;4835510;29;20054;-77
2021/09/12 01:38:21;;;;;;;42.80;34.50;;;;;11.70;100908.00;;;;4835403;29;20178;-77
2021/09/12 01:40:50;;;;;;;290.40;65.45;;;;;11.70;100861.00;;;;4837566;29;20053;-77
2021/09/12 01:43:22;;;;;;;100.93;93.97;;;;;11.60;100905.00;;;;4837550;29;20132;-77
2021/09/12 01:45:50;;;;;;;10.02;1.77;;;;;11.60;100898.00;;;;4836559;29;20060;-76
2021/09/12 01:48:20;;;;;;;107.30;14.13;;;;;11.60;100869.00;;;;4838036;29;20499;-78
2021/09/12 01:50:48;;;;;;;12.13;11.38;;;;;11.60;100868.00;;;;4837394;29;20137;-75
2021/09/12 01:53:17;;;;;;;398.40;187.45;;;;;11.50;100867.00;;;;4837693;29;20050;-75
2021/09/12 01:55:46;;;;;;;447.77;307.98;;;;;11.60;100884.00;;;;4837109;29;20054;-77
2021/09/12 01:58:15;;;;;;;3.65;3.42;;;;;11.60;100873.00;;;;4837374;29;20058;-77
2021/09/12 02:00:44;;;;;;;41.67;30.58;;;;;11.60;100867.00;;;;4837402;29;20058;-76
2021/09/12 02:03:13;;;;;;;4.80;1.33;;;;;11.50;100844.00;;;;4837719;29;20049;-77
2021/09/12 02:05:42;;;;;;;1999.90;999.90;;;;;11.50;100872.00;;;;4837424;29;20503;-76
2021/09/12 02:08:11;;;;;;;64.95;59.65;;;;;11.50;100844.00;;;;4837103;29;20066;-76
2021/09/12 02:10:42;;;;;;;45.42;42.42;;;;;11.50;100876.00;;;;4837231;29;20589;-78
2021/09/12 02:13:12;;;;;;;1.10;1.08;;;;;11.40;100847.00;;;;4837532;29;20062;-76
2021/09/12 02:15:41;;;;;;;0.00;0.00;;;;;11.40;100860.00;;;;4837193;29;20065;-78
2021/09/12 02:18:12;;;;;;;0.43;0.43;;;;;11.40;100848.00;;;;4837385;29;20110;-80
2021/09/12 02:20:41;;;;;;;1.35;1.35;;;;;11.30;100872.00;;;;4836786;29;20399;-78
2021/09/12 02:23:10;;;;;;;1999.90;999.90;;;;;11.40;100854.00;;;;4837242;29;20433;-79
2021/09/12 02:25:39;;;;;;;183.73;164.10;;;;;11.40;100825.00;;;;4837418;29;20054;-77
2021/09/12 02:28:08;;;;;;;589.90;322.85;;;;;11.30;100827.00;;;;4837469;29;20046;-79
2021/09/12 02:30:37;;;;;;;0.32;0.32;;;;;11.30;100852.00;;;;4837635;29;20140;-78
2021/09/12 02:33:06;;;;;;;82.55;55.25;;;;;11.30;100826.00;;;;4837356;29;20053;-78
2021/09/12 02:35:35;;;;;;;0.10;0.10;;;;;11.30;100813.00;;;;4836572;29;20058;-77
2021/09/12 02:38:04;;;;;;;0.75;0.32;;;;;11.30;100838.00;;;;4836419;29;20062;-79
2021/09/12 02:40:33;;;;;;;5.20;3.83;;;;;11.20;100830.00;;;;4836743;29;20085;-78
2021/09/12 02:43:02;;;;;;;336.35;293.52;;;;;11.20;100812.00;;;;4836762;29;20062;-78
2021/09/12 02:45:31;;;;;;;248.15;226.02;;;;;11.20;100844.00;;;;4836709;29;20069;-77
2021/09/12 02:48:00;;;;;;;8.55;7.85;;;;;11.20;100836.00;;;;4836755;29;20093;-76
2021/09/12 02:50:29;;;;;;;43.30;40.42;;;;;11.20;100844.00;;;;4837282;29;20054;-80
2021/09/12 02:52:58;;;;;;;51.35;47.53;;;;;11.20;100830.00;;;;4837118;29;20049;-78
2021/09/12 02:55:27;;;;;;;83.05;77.75;;;;;11.20;100822.00;;;;4836234;29;20061;-78
2021/09/12 02:57:56;;;;;;;4.50;0.68;;;;;11.20;100851.00;;;;4836219;29;20061;-78
2021/09/12 03:00:25;;;;;;;16.23;9.88;;;;;11.10;100826.00;;;;4835998;29;20058;-80
2021/09/12 03:02:54;;;;;;;8.43;1.20;;;;;11.10;100793.00;;;;4836967;29;20060;-77
2021/09/12 03:05:24;;;;;;;2.92;1.85;;;;;11.10;100820.00;;;;4836119;29;20053;-77
2021/09/12 03:07:52;;;;;;;8.95;2.53;;;;;11.10;100794.00;;;;4836395;29;20109;-79
2021/09/12 03:10:21;;;;;;;2.75;1.55;;;;;11.10;100832.00;;;;4836742;29;20073;-80
2021/09/12 03:12:51;;;;;;;3.78;1.65;;;;;11.10;100798.00;;;;4836675;29;20057;-78
2021/09/12 03:15:20;;;;;;;5.60;5.10;;;;;11.10;100819.00;;;;4836441;29;20091;-78
2021/09/12 03:17:49;;;;;;;3.92;1.73;;;;;11.10;100817.00;;;;4836183;29;20065;-76
2021/09/12 03:20:18;;;;;;;26.40;24.63;;;;;11.00;100801.00;;;;4835816;29;20057;-77
2021/09/12 03:22:47;;;;;;;2.13;1.92;;;;;11.00;100801.00;;;;4836528;29;20057;-76
2021/09/12 03:25:16;;;;;;;2.30;1.27;;;;;11.00;100802.00;;;;4835527;29;20125;-77
2021/09/12 03:27:45;;;;;;;1.65;1.40;;;;;11.00;100805.00;;;;4836326;29;20125;-76
2021/09/12 03:30:14;;;;;;;5.70;1.92;;;;;11.00;100803.00;;;;4836092;29;20514;-75
2021/09/12 03:32:43;;;;;;;2.25;1.63;;;;;11.00;100780.00;;;;4835983;29;20050;-76
2021/09/12 03:35:13;;;;;;;3.33;1.40;;;;;11.10;100801.00;;;;4836302;29;20046;-76
2021/09/12 03:37:42;;;;;;;2.97;1.83;;;;;11.10;100776.00;;;;4837155;29;20391;-77
2021/09/12 03:40:11;;;;;;;5.30;2.05;;;;;11.00;100789.00;;;;4836764;29;20102;-77
2021/09/12 03:42:40;;;;;;;2.67;1.85;;;;;11.00;100770.00;;;;4836123;29;20061;-76
2021/09/12 03:45:10;;;;;;;3.05;1.70;;;;;11.00;100785.00;;;;4835456;29;20505;-77
2021/09/12 03:47:38;;;;;;;2.70;1.70;;;;;11.00;100772.00;;;;4836148;29;20504;-77
2021/09/12 03:50:08;;;;;;;6.20;2.25;;;;;10.90;100763.00;;;;4835599;29;20054;-76
2021/09/12 03:52:38;;;;;;;2.55;1.80;;;;;10.90;100793.00;;;;4835778;29;20054;-77
2021/09/12 03:55:08;;;;;;;3.38;2.28;;;;;10.80;100781.00;;;;4836032;29;20060;-76
2021/09/12 03:57:37;;;;;;;7.38;2.08;;;;;10.80;100753.00;;;;4835948;29;20057;-76
2021/09/12 04:00:08;;;;;;;3.33;2.35;;;;;10.80;100759.00;;;;4836309;29;20050;-76
2021/09/12 04:02:37;;;;;;;4.10;3.00;;;;;10.80;100768.00;;;;4836335;29;20432;-77
2021/09/12 04:05:07;;;;;;;6.18;4.15;;;;;10.70;100758.00;;;;4835107;29;20531;-76
2021/09/12 04:07:36;;;;;;;152.90;68.88;;;;;10.70;100733.00;;;;4835997;29;20060;-77
2021/09/12 04:10:09;;;;;;;255.63;156.10;;;;;10.70;100768.00;;;;4835488;29;20050;-76
2021/09/12 04:12:38;;;;;;;142.15;49.10;;;;;10.70;100769.00;;;;4835650;29;20053;-76
2021/09/12 04:15:07;;;;;;;1209.50;556.67;;;;;10.70;100774.00;;;;4836162;29;20528;-76
2021/09/12 04:17:36;;;;;;;0.00;0.00;;;;;10.60;100750.00;;;;4834492;29;20053;-77
2021/09/12 04:20:08;;;;;;;7.63;7.10;;;;;10.70;100764.00;;;;4835671;29;20061;-76
2021/09/12 04:22:37;;;;;;;2.70;1.58;;;;;10.70;100734.00;;;;4835476;29;20050;-76
2021/09/12 04:25:07;;;;;;;17.10;14.85;;;;;10.60;100775.00;;;;4836314;29;20336;-76
2021/09/12 04:27:36;;;;;;;108.47;37.25;;;;;10.60;100748.00;;;;4835731;29;20076;-76
2021/09/12 04:30:08;;;;;;;15.18;11.48;;;;;10.60;100761.00;;;;4835859;29;20053;-76
2021/09/12 04:32:36;;;;;;;;;;;;;10.60;100762.00;;;;4836536;29;20061;-76
2021/09/12 04:35:05;;;;;;;0.77;0.63;;;;;10.60;100755.00;;;;4835697;29;19937;-76
2021/09/12 04:37:34;;;;;;;2.60;1.35;;;;;10.50;100750.00;;;;4837237;29;20057;-76
2021/09/12 04:40:03;;;;;;;1.95;1.83;;;;;10.50;100762.00;;;;4839171;29;20054;-76
2021/09/12 04:42:33;;;;;;;2.13;1.80;;;;;10.50;100757.00;;;;4839138;29;20065;-76
2021/09/12 04:45:04;;;;;;;5.43;1.50;;;;;10.60;100719.00;;;;4839269;29;20631;-76
2021/09/12 04:47:33;;;;;;;3.50;1.42;;;;;10.60;100730.00;;;;4839289;29;20049;-77
2021/09/12 04:50:03;;;;;;;2.38;1.50;;;;;10.60;100723.00;;;;4839147;29;20497;-77
2021/09/12 04:52:32;;;;;;;1.77;1.45;;;;;10.60;100706.00;;;;4839098;29;20064;-76
2021/09/12 04:55:01;;;;;;;5.68;4.93;;;;;10.60;100736.00;;;;4838822;29;20057;-76
2021/09/12 04:57:30;;;;;;;2.20;1.70;;;;;10.50;100722.00;;;;4838656;29;20050;-76
2021/09/12 04:59:58;;;;;;;1.30;1.20;;;;;10.50;100708.00;;;;4838749;29;20050;-76
2021/09/12 05:02:27;;;;;;;110.32;99.72;;;;;10.50;100714.00;;;;4838717;29;20061;-76
2021/09/12 05:04:56;;;;;;;0.00;0.00;;;;;10.50;100677.00;;;;4838864;29;20045;-76
2021/09/12 05:07:25;;;;;;;2.42;2.17;;;;;10.50;100720.00;;;;4838010;29;20058;-75
2021/09/12 05:09:54;;;;;;;1.77;1.10;;;;;10.40;100713.00;;;;4838536;29;20049;-77
2021/09/12 05:12:24;;;;;;;92.15;85.25;;;;;10.40;100704.00;;;;4839089;29;20410;-76
2021/09/12 05:14:53;;;;;;;1.17;1.08;;;;;10.40;100712.00;;;;4838904;29;20068;-76
2021/09/12 05:17:22;;;;;;;0.90;0.90;;;;;10.30;100710.00;;;;4838561;29;20530;-76
2021/09/12 05:19:51;;;;;;;2.03;1.90;;;;;10.30;100673.00;;;;4838269;29;20127;-76
2021/09/12 05:22:21;;;;;;;89.35;10.75;;;;;10.30;100687.00;;;;4838680;29;20509;-75
2021/09/12 05:24:49;;;;;;;0.50;0.50;;;;;10.30;100678.00;;;;4838396;29;20069;-76
2021/09/12 05:27:18;;;;;;;2.25;0.70;;;;;10.20;100679.00;;;;4838598;29;20060;-76
2021/09/12 05:29:47;;;;;;;3.33;1.00;;;;;10.20;100711.00;;;;4838683;29;20058;-77
2021/09/12 05:32:17;;;;;;;3.25;1.40;;;;;10.20;100694.00;;;;4838188;29;20049;-76
2021/09/12 05:34:46;;;;;;;6.43;6.13;;;;;10.20;100676.00;;;;4838691;29;20089;-77
2021/09/12 05:37:15;;;;;;;141.15;93.97;;;;;10.30;100682.00;;;;4838559;29;20079;-76
2021/09/12 05:39:44;;;;;;;41.30;37.25;;;;;10.20;100667.00;;;;4837804;29;20441;-77
2021/09/12 05:42:13;;;;;;;24.13;22.05;;;;;10.20;100672.00;;;;4838295;29;20057;-76
2021/09/12 05:44:41;;;;;;;4.03;2.08;;;;;10.20;100663.00;;;;4838004;29;20433;-75
2021/09/12 05:47:11;;;;;;;0.10;0.10;;;;;10.20;100663.00;;;;4837603;29;20061;-75
2021/09/12 05:49:39;;;;;;;1999.90;999.90;;;;;10.20;100676.00;;;;4837323;29;20050;-75
2021/09/12 05:52:10;;;;;;;0.98;0.80;;;;;10.20;100676.00;;;;4837810;29;20054;-75
2021/09/12 05:54:39;;;;;;;3.20;0.93;;;;;10.20;100667.00;;;;4838241;29;20125;-76
2021/09/12 05:57:07;;;;;;;1.83;1.40;;;;;10.20;100637.00;;;;4837977;29;20046;-76
2021/09/12 05:59:36;;;;;;;2.00;1.40;;;;;10.20;100658.00;;;;4837557;29;20057;-75
2021/09/12 06:02:05;;;;;;;14.40;10.10;;;;;10.20;100658.00;;;;4837891;29;20058;-75
2021/09/12 06:04:35;;;;;;;1.20;1.10;;;;;10.20;100654.00;;;;4837957;29;20108;-77
2021/09/12 06:07:04;;;;;;;1.92;1.58;;;;;10.20;100622.00;;;;4837621;29;20069;-75
2021/09/12 06:09:32;;;;;;;3.15;2.97;;;;;10.20;100641.00;;;;4837637;29;20053;-76
2021/09/12 06:12:02;;;;;;;3.35;1.40;;;;;10.20;100641.00;;;;4837517;29;20046;-76
2021/09/12 06:14:30;;;;;;;0.90;0.80;;;;;10.10;100637.00;;;;4838033;29;20061;-75
2021/09/12 06:17:04;;;;;;;1.80;0.73;;;;;10.10;100636.00;;;;4837783;29;20046;-76
2021/09/12 06:19:35;;;;;;;3.22;1.88;;;;;10.10;100655.00;;;;4837600;29;20066;-76
2021/09/12 06:22:05;;;;;;;1.38;0.90;;;;;10.10;100626.00;;;;4838210;29;20062;-76
2021/09/12 06:24:34;;;;;;;18.17;16.73;;;;;10.10;100638.00;;;;4838141;29;20086;-76
2021/09/12 06:27:03;;;;;;;1.20;1.15;;;;;10.00;100643.00;;;;4837440;29;20058;-77
2021/09/12 06:29:32;;;;;;;3.47;3.28;;;;;10.00;100616.00;;;;4837567;29;20494;-78
2021/09/12 06:32:01;;;;;;;0.98;0.70;;;;;10.00;100634.00;;;;4837167;29;20647;-78
2021/09/12 06:34:30;;;;;;;170.32;57.15;;;;;10.10;100625.00;;;;4837353;29;20054;-78
2021/09/12 06:36:59;;;;;;;351.02;79.35;;;;;10.10;100618.00;;;;4836892;29;20089;-78
2021/09/12 06:39:28;;;;;;;351.27;122.57;;;;;10.10;100595.00;;;;4837378;29;20054;-76
2021/09/12 06:41:57;;;;;;;6.30;2.45;;;;;10.10;100620.00;;;;4836864;29;20054;-77
2021/09/12 06:44:26;;;;;;;5.78;3.22;;;;;10.10;100610.00;;;;4837403;29;20109;-77
2021/09/12 06:46:55;;;;;;;8.23;2.72;;;;;10.10;100609.00;;;;4837484;29;20486;-76
2021/09/12 06:49:24;;;;;;;0.30;0.30;;;;;10.10;100588.00;;;;4837004;29;20068;-76
2021/09/12 06:51:55;;;;;;;;;;;;;10.00;100587.00;;;;4837396;29;20054;-74
2021/09/12 06:54:24;;;;;;;2.05;1.42;;;;;9.90;100575.00;;;;4836848;29;19928;-77
2021/09/12 06:56:54;;;;;;;4.55;2.88;;;;;10.00;100569.00;;;;4837465;29;20144;-77
2021/09/12 06:59:23;;;;;;;5.10;2.60;;;;;9.90;100582.00;;;;4836459;29;20065;-76
2021/09/12 07:01:52;;;;;;;6.63;4.72;;;;;9.90;100561.00;;;;4835710;29;20054;-77
2021/09/12 07:04:21;;;;;;;11.32;5.43;;;;;9.80;100587.00;;;;4836822;29;20057;-76
2021/09/12 07:06:50;;;;;;;8.32;4.15;;;;;9.80;100581.00;;;;4836544;29;21015;-77
2021/09/12 07:09:19;;;;;;;11.48;3.97;;;;;9.80;100570.00;;;;4836766;29;20060;-77
2021/09/12 07:11:48;;;;;;;7.35;3.67;;;;;9.80;100575.00;;;;4837260;29;20139;-76
2021/09/12 07:14:36;;;;;;;12.80;7.30;;;;;9.70;100566.00;;;;4836036;29;20050;-77
2021/09/12 07:17:06;;;;;;;3.80;2.33;;;;;9.70;100573.00;;;;4836757;29;20064;-77
2021/09/12 07:19:35;;;;;;;66.13;61.03;;;;;9.70;100572.00;;;;4836525;29;20054;-77
2021/09/12 07:22:04;;;;;;;90.00;82.88;;;;;9.70;100596.00;;;;4835129;29;20140;-77
2021/09/12 07:24:33;;;;;;;2.83;1.50;;;;;9.70;100555.00;;;;4836836;29;20057;-76
2021/09/12 07:27:02;;;;;;;3.53;2.30;;;;;9.60;100574.00;;;;4836291;29;20125;-77
2021/09/12 07:29:32;;;;;;;44.83;3.70;;;;;9.50;100545.00;;;;4836492;29;20056;-77
2021/09/12 07:32:01;;;;;;;3.50;3.20;;;;;9.50;100557.00;;;;4836076;29;20054;-76
2021/09/12 07:34:30;;;;;;;5.05;1.77;;;;;9.50;100569.00;;;;4836831;29;20113;-77
2021/09/12 07:36:59;;;;;;;5.43;2.30;;;;;9.50;100599.00;;;;4836362;29;20065;-78
2021/09/12 07:39:28;;;;;;;7.15;5.22;;;;;9.50;100566.00;;;;4835698;29;20054;-77
2021/09/12 07:41:57;;;;;;;9.60;6.00;;;;;9.50;100579.00;;;;4836016;29;20054;-76
2021/09/12 07:44:26;;;;;;;14.65;6.78;;;;;9.40;100573.00;;;;4836449;29;20058;-77
2021/09/12 07:46:55;;;;;;;9.68;4.97;;;;;9.40;100607.00;;;;4836542;29;20053;-78
2021/09/12 07:49:24;;;;;;;6.30;4.30;;;;;9.40;100587.00;;;;4836326;29;20418;-77
2021/09/12 07:51:53;;;;;;;18.98;14.02;;;;;9.40;100561.00;;;;4835729;29;20084;-76
2021/09/12 07:54:22;;;;;;;3.67;3.00;;;;;9.40;100598.00;;;;4836226;29;20077;-77
2021/09/12 07:56:51;;;;;;;5.63;4.28;;;;;9.30;100569.00;;;;4836778;29;20065;-77
2021/09/12 07:59:19;;;;;;;6.70;3.13;;;;;9.30;100607.00;;;;4835773;29;20070;-78
2021/09/12 08:01:48;;;;;;;66.57;35.50;;;;;9.30;100577.00;;;;4835586;29;20455;-76
2021/09/12 08:04:18;;;;;;;1.05;0.95;;;;;9.40;100588.00;;;;4836084;29;20050;-77
2021/09/12 08:06:46;;;;;;;3.92;2.40;;;;;9.40;100602.00;;;;4835492;29;20065;-76
2021/09/12 08:09:16;;;;;;;219.18;97.22;;;;;9.40;100596.00;;;;4835953;29;20050;-76
2021/09/12 08:11:44;;;;;;;5.10;3.33;;;;;9.40;100590.00;;;;4835697;29;20129;-77
2021/09/12 08:14:13;;;;;;;5.57;3.20;;;;;9.40;100595.00;;;;4836428;29;20062;-76
2021/09/12 08:16:43;;;;;;;3.28;2.53;;;;;9.30;100629.00;;;;4835620;29;20548;-77
2021/09/12 08:19:12;;;;;;;6.68;2.35;;;;;9.40;100605.00;;;;4835691;29;20144;-76
2021/09/12 08:21:43;;;;;;;1999.90;999.90;;;;;9.40;100597.00;;;;4836152;29;20056;-77
2021/09/12 08:24:12;;;;;;;4.85;2.92;;;;;9.40;100592.00;;;;4835622;29;20126;-76
2021/09/12 08:26:41;;;;;;;1.67;1.58;;;;;9.30;100629.00;;;;4835785;29;20129;-76
2021/09/12 08:29:10;;;;;;;220.98;91.22;;;;;9.30;100599.00;;;;4834973;29;20069;-76
2021/09/12 08:31:39;;;;;;;1.20;1.08;;;;;9.30;100635.00;;;;4835147;29;20510;-76
2021/09/12 08:34:08;;;;;;;1.58;1.45;;;;;9.20;100598.00;;;;4835838;29;20053;-76
2021/09/12 08:36:37;;;;;;;2.78;1.75;;;;;9.10;100603.00;;;;4835741;29;20050;-76
2021/09/12 08:39:06;;;;;;;2.33;1.40;;;;;9.20;100634.00;;;;4835544;29;20430;-76
2021/09/12 08:41:36;;;;;;;3.55;2.22;;;;;9.20;100643.00;;;;4835839;29;20054;-75
2021/09/12 08:44:06;;;;;;;2.35;1.92;;;;;9.20;100637.00;;;;4835474;29;20054;-77
2021/09/12 08:46:35;;;;;;;4.70;4.40;;;;;9.20;100642.00;;;;4836454;29;20427;-76
2021/09/12 08:49:06;;;;;;;2.08;1.98;;;;;9.10;100629.00;;;;4835429;29;20060;-76
2021/09/12 08:51:35;;;;;;;4.38;1.45;;;;;9.20;100619.00;;;;4835409;29;20058;-76
2021/09/12 08:54:04;;;;;;;2.13;1.75;;;;;9.10;100617.00;;;;4835608;29;20145;-76
2021/09/12 08:56:33;;;;;;;0.20;0.20;;;;;9.10;100637.00;;;;4835544;29;20078;-75
2021/09/12 08:59:02;;;;;;;2.38;2.03;;;;;9.20;100666.00;;;;4835408;29;20053;-75
2021/09/12 09:01:36;;;;;;;2.67;1.83;;;;;9.10;100632.00;;;;4835424;29;20054;-76
2021/09/12 09:04:05;;;;;;;4.32;2.78;;;;;9.10;100661.00;;;;4835371;29;20050;-76
2021/09/12 09:06:36;;;;;;;4.90;2.15;;;;;9.10;100642.00;;;;4835437;29;20066;-75
2021/09/12 09:09:08;;;;;;;0.85;0.65;;;;;9.10;100664.00;;;;4835084;29;20054;-75
2021/09/12 09:11:40;;;;;;;2.50;1.90;;;;;9.00;100661.00;;;;4835362;29;20057;-75
2021/09/12 09:14:21;;;;;;;;;;;;;9.00;100660.00;;;;4835642;29;20054;-76
2021/09/12 09:16:51;;;;;;;0.00;0.00;;;;;9.00;100654.00;;;;4835072;29;19936;-76
2021/09/12 09:19:20;;;;;;;1.25;1.15;;;;;9.00;100642.00;;;;4835152;29;20062;-76
2021/09/12 09:21:49;;;;;;;0.45;0.45;;;;;9.00;100666.00;;;;4835243;29;20054;-75
2021/09/12 09:24:25;;;;;;;151.73;112.43;;;;;9.00;100683.00;;;;4836613;29;20050;-76
2021/09/12 09:26:57;;;;;;;2.10;1.55;;;;;9.00;100657.00;;;;4838586;29;20054;-74
2021/09/12 09:29:28;;;;;;;1.13;1.02;;;;;9.00;100675.00;;;;4838217;29;20616;-76
2021/09/12 09:32:09;;;;;;;1.45;0.20;;;;;9.10;100672.00;;;;4837916;29;20045;-76
2021/09/12 09:34:40;;;;;;;2.08;1.88;;;;;9.10;100663.00;;;;4838496;29;20058;-76
2021/09/12 09:37:10;;;;;;;3.70;3.47;;;;;9.20;100672.00;;;;4838440;29;20065;-77
2021/09/12 09:39:44;;;;;;;6.63;2.63;;;;;9.20;100673.00;;;;4838305;29;20065;-75
2021/09/12 09:42:39;;;;;;;1.90;1.80;;;;;9.20;100694.00;;;;4837857;29;20050;-76
2021/09/12 09:45:12;;;;;;;1.73;1.10;;;;;9.20;100702.00;;;;4838017;29;20541;-78
2021/09/12 09:47:44;;;;;;;4.93;2.20;;;;;9.20;100693.00;;;;4838250;29;20058;-76
2021/09/12 09:50:18;;;;;;;2.55;2.35;;;;;9.30;100692.00;;;;4838272;29;20434;-76
2021/09/12 09:52:48;;;;;;;6.43;2.30;;;;;9.40;100667.00;;;;4838331;29;20060;-78
2021/09/12 09:55:20;;;;;;;4.60;2.40;;;;;9.40;100687.00;;;;4838852;29;20124;-77
2021/09/12 09:57:51;;;;;;;4.47;1.90;;;;;9.50;100693.00;;;;4838386;29;20093;-78
2021/09/12 10:00:25;;;;;;;3.58;2.42;;;;;9.60;100691.00;;;;4838194;29;20145;-77
2021/09/12 10:02:54;;;;;;;3.20;2.25;;;;;9.70;100700.00;;;;4838033;29;20085;-77
2021/09/12 10:05:24;;;;;;;3.28;2.63;;;;;9.80;100669.00;;;;4837058;29;20050;-76
2021/09/12 10:07:53;;;;;;;10.15;1.67;;;;;9.90;100681.00;;;;4838176;29;20069;-77
2021/09/12 10:10:22;;;;;;;14.50;2.75;;;;;10.00;100697.00;;;;4837662;29;20136;-76
2021/09/12 10:12:59;;;;;;;0.17;0.10;;;;;10.10;100701.00;;;;4837451;29;20058;-76
2021/09/12 10:15:35;;;;;;;2.20;1.98;;;;;10.20;100682.00;;;;4838097;29;20050;-77
2021/09/12 10:18:05;;;;;;;3.33;2.22;;;;;10.40;100674.00;;;;4837864;29;20096;-76
2021/09/12 10:20:37;;;;;;;3.17;2.25;;;;;10.50;100707.00;;;;4837830;29;20062;-77
2021/09/12 10:23:08;;;;;;;5.32;2.58;;;;;10.70;100699.00;;;;4837437;29;21095;-78
2021/09/12 10:25:49;;;;;;;2.88;2.45;;;;;10.80;100710.00;;;;4837493;29;20118;-76
2021/09/12 10:28:33;;;;;;;4.05;2.33;;;;;10.90;100707.00;;;;4836989;29;20170;-76
2021/09/12 10:31:33;;;;;;;11.45;8.45;;;;;11.10;100720.00;;;;4837483;29;20054;-77
2021/09/12 10:34:13;;;;;;;3.72;2.40;;;;;11.30;100700.00;;;;4837389;29;20506;-76
2021/09/12 10:36:43;;;;;;;13.75;12.85;;;;;11.40;100700.00;;;;4836997;29;20537;-77
2021/09/12 10:39:25;;;;;;;6.17;2.80;;;;;11.60;100720.00;;;;4837446;29;20050;-76
2021/09/12 10:42:12;;;;;;;;;;;;;11.70;100725.00;;;;4837950;29;20058;-75
2021/09/12 10:44:41;;;;;;;5.75;5.43;;;;;11.80;100695.00;;;;4837555;29;20358;-78
2021/09/12 10:47:13;;;;;;;1.52;1.40;;;;;11.90;100681.00;;;;4836476;29;20057;-77
2021/09/12 10:49:42;;;;;;;0.82;0.82;;;;;12.00;100720.00;;;;4836916;29;20624;-76
2021/09/12 10:52:46;;;;;;;1.75;0.82;;;;;12.30;100730.00;;;;4836780;29;20050;-76
2021/09/12 10:55:16;;;;;;;0.40;0.40;;;;;12.40;100695.00;;;;4837692;29;20054;-76
2021/09/12 10:57:44;;;;;;;0.85;0.85;;;;;12.70;100723.00;;;;4836625;29;20064;-79
2021/09/12 11:00:16;;;;;;;2.72;0.75;;;;;12.80;100717.00;;;;4836766;29;20530;-77
2021/09/12 11:02:49;;;;;;;2.33;2.17;;;;;13.20;100717.00;;;;4836981;29;20076;-79
2021/09/12 11:05:27;;;;;;;2.17;1.15;;;;;13.60;100683.00;;;;4836609;29;20061;-77
2021/09/12 11:07:56;;;;;;;2.95;2.75;;;;;13.70;100704.00;;;;4836754;29;20059;-79
2021/09/12 11:10:42;;;;;;;207.95;96.40;;;;;14.10;100684.00;;;;4836728;29;20424;-77
2021/09/12 11:13:11;;;;;;;4.68;2.63;;;;;14.60;100683.00;;;;4836262;29;20103;-77
2021/09/12 11:15:40;;;;;;;1.50;1.35;;;;;15.80;100693.00;;;;4836485;29;20054;-79
2021/09/12 11:18:09;;;;;;;13.52;12.63;;;;;19.20;100493.00;;;;4836306;29;20816;-77
2021/09/12 11:20:43;;;;;;;83.43;76.13;;;;;21.70;100510.00;;;;4836395;29;20118;-76
2021/09/12 11:23:35;;;;;;;26.85;23.98;;;;;22.40;100516.00;;;;4836325;29;20050;-78
2021/09/12 11:26:04;;;;;;;57.28;52.22;;;;;22.00;100517.00;;;;4836119;29;20050;-75
2021/09/12 11:28:33;;;;;;;765.83;233.55;;;;;22.20;100506.00;;;;4836171;29;20060;-77
2021/09/12 11:31:03;;;;;;;218.32;98.68;;;;;22.10;100504.00;;;;4836886;29;20085;-77
2021/09/12 11:33:51;;;;;;;6.70;6.20;;;;;23.10;100490.00;;;;4836427;29;20544;-78
2021/09/12 11:36:21;;;;;;;252.57;134.13;;;;;22.60;100498.00;;;;4836080;29;20533;-77
2021/09/12 11:38:55;;;;;;;396.50;127.73;;;;;23.00;100495.00;;;;4836137;29;20118;-78
2021/09/12 11:41:26;;;;;;;94.07;16.50;;;;;23.00;100471.00;;;;4836100;29;20433;-77
2021/09/12 11:44:00;;;;;;;408.83;29.05;;;;;23.70;100499.00;;;;4835685;29;20064;-77
2021/09/12 11:46:32;;;;;;;11.35;3.92;;;;;23.90;100471.00;;;;4835676;29;20441;-78
2021/09/12 11:49:04;;;;;;;216.05;77.63;;;;;23.50;100471.00;;;;4836342;29;21073;-78
2021/09/12 11:51:35;;;;;;;32.92;29.90;;;;;23.00;100468.00;;;;4835616;29;20065;-78
2021/09/12 11:54:07;;;;;;;14.63;9.50;;;;;23.20;100465.00;;;;4836956;29;20054;-77
2021/09/12 11:56:38;;;;;;;13.23;5.90;;;;;23.60;100454.00;;;;4836280;29;20069;-76
2021/09/12 11:59:09;;;;;;;26.05;23.13;;;;;23.60;100455.00;;;;4836010;29;20064;-78
2021/09/12 12:01:40;;;;;;;1.85;0.77;;;;;23.90;100454.00;;;;4835582;29;20068;-77
2021/09/12 12:04:09;;;;;;;;;;;;;24.50;100539.00;;;;4834958;29;20056;-77
2021/09/12 12:06:39;;;;;;;2.50;2.28;;;;;24.20;100495.00;;;;4835346;29;19929;-77
2021/09/12 12:09:15;;;;;;;4.78;4.38;;;;;24.60;100507.00;;;;4835420;29;20054;-76
2021/09/12 12:11:47;;;;;;;14.73;13.57;;;;;25.50;100514.00;;;;4835876;29;20054;-77
2021/09/12 12:14:19;;;;;;;1.50;1.30;;;;;24.80;100507.00;;;;4836041;29;20057;-77
2021/09/12 12:16:49;;;;;;;0.85;0.85;;;;;25.10;100498.00;;;;4835688;29;20097;-77
2021/09/12 12:19:20;;;;;;;0.52;0.52;;;;;25.50;100486.00;;;;4836091;29;20061;-77